Terminal Aerodrome Forecast
Issued by NWS St Louis, MO

Home | Current Version | Previous Version | Text Only | Print | Product List | Glossary On
Versions: 1 2 3 4 5 6 7 8 9 10 11 12 13 14 15 16 17 18 19 20 21 22 23 24 25 26 27
000
FTUS43 KLSX 301100
TAFCOU
TAF
KCOU 301128Z 3012/3112 19007KT P6SM SCT080 BKN250
     FM301600 24008KT P6SM VCTS SCT030CB BKN120
     FM310000 VRB05KT P6SM SCT050 BKN120
     FM310500 18005KT P6SM SCT050 BKN250=

USA.gov is the U.S. government's official web portal to all federal, state and local government web resources and services.